createdAt,value
2022-12-23T00:00:29.504Z,18.55
2022-12-23T00:02:56.617Z,20.15
2022-12-23T00:05:23.685Z,19.75
2022-12-23T00:07:50.618Z,19.25
2022-12-23T00:10:17.456Z,17.98
2022-12-23T00:13:02.815Z,19.17
2022-12-23T00:15:29.626Z,19.77
2022-12-23T00:17:56.427Z,20.57
2022-12-23T00:20:23.652Z,22.05
2022-12-23T00:23:05.697Z,20.38
2022-12-23T00:25:41.866Z,18.75
2022-12-23T00:28:18.209Z,17.08
2022-12-23T00:30:49.374Z,17.00
2022-12-23T00:33:18.408Z,19.35
2022-12-23T00:35:46.522Z,17.20
2022-12-23T00:38:13.949Z,21.15
2022-12-23T00:41:02.290Z,20.25
2022-12-23T00:43:29.109Z,18.20
2022-12-23T00:45:56.108Z,20.88
2022-12-23T00:48:41.777Z,16.35
2022-12-23T00:51:08.676Z,16.77
2022-12-23T00:53:35.555Z,21.65
2022-12-23T00:56:02.333Z,15.32
2022-12-23T00:58:29.418Z,16.17
2022-12-23T01:01:15.253Z,24.17
2022-12-23T01:04:00.935Z,21.67
2022-12-23T01:06:27.971Z,19.73
2022-12-23T01:08:54.831Z,19.77
2022-12-23T01:11:21.831Z,20.50
2022-12-23T01:13:48.714Z,24.02
2022-12-23T01:16:17.864Z,26.15
2022-12-23T01:18:45.521Z,24.17
2022-12-23T01:21:12.729Z,25.85
2022-12-23T01:23:39.713Z,22.40
2022-12-23T01:26:08.178Z,21.88
2022-12-23T01:28:36.265Z,26.10
2022-12-23T01:31:05.276Z,23.90
2022-12-23T01:33:33.403Z,23.13
2022-12-23T01:36:06.043Z,25.05
2022-12-23T01:38:34.264Z,26.33
2022-12-23T01:41:01.489Z,28.52
2022-12-23T01:43:51.931Z,25.42
2022-12-23T01:46:18.977Z,21.00
2022-12-23T01:48:51.439Z,22.33
2022-12-23T01:51:25.901Z,20.40
2022-12-23T01:53:57.516Z,22.27
2022-12-23T01:56:32.487Z,23.33
2022-12-23T01:59:32.418Z,22.13
2022-12-23T02:02:18.024Z,22.40
2022-12-23T02:04:45.260Z,24.27
2022-12-23T02:07:32.049Z,19.42
2022-12-23T02:09:59.252Z,23.70
2022-12-23T02:13:05.764Z,20.88
2022-12-23T02:16:11.510Z,25.20
2022-12-23T02:18:56.695Z,24.10
2022-12-23T02:21:42.117Z,20.77
2022-12-23T02:24:30.483Z,22.05
2022-12-23T02:27:03.089Z,19.95
2022-12-23T02:30:07.977Z,18.42
2022-12-23T02:33:19.461Z,17.85
2022-12-23T02:35:58.271Z,23.13
2022-12-23T02:38:42.948Z,22.00
2022-12-23T02:41:23.004Z,24.45
2022-12-23T02:44:19.186Z,18.50
2022-12-23T02:46:49.955Z,17.13
2022-12-23T02:49:40.302Z,28.63
2022-12-23T02:52:14.230Z,17.58
2022-12-23T02:54:56.729Z,21.33
2022-12-23T02:57:29.368Z,22.10
2022-12-23T02:59:57.914Z,16.77
2022-12-23T03:02:24.876Z,20.92
2022-12-23T03:04:51.949Z,16.15
2022-12-23T03:07:27.054Z,20.42
2022-12-23T03:10:22.130Z,19.00
2022-12-23T03:13:01.021Z,20.40
2022-12-23T03:15:38.198Z,21.77
2022-12-23T03:18:51.209Z,28.83
2022-12-23T03:21:40.152Z,19.10
2022-12-23T03:24:24.702Z,17.30
2022-12-23T03:27:12.547Z,15.65
2022-12-23T03:30:02.099Z,16.40
2022-12-23T03:32:33.464Z,18.10
2022-12-23T03:35:02.606Z,19.63
2022-12-23T03:37:33.163Z,14.00
2022-12-23T03:40:22.123Z,18.77
2022-12-23T03:42:54.903Z,16.48
2022-12-23T03:45:40.672Z,16.75
2022-12-23T03:48:24.012Z,13.23
2022-12-23T03:50:58.227Z,15.85
2022-12-23T03:53:36.653Z,12.30
2022-12-23T03:56:09.216Z,14.27
2022-12-23T03:58:43.799Z,14.00
2022-12-23T04:01:14.644Z,11.15
2022-12-23T04:04:07.041Z,14.90
2022-12-23T04:06:41.762Z,12.90
2022-12-23T04:09:09.157Z,13.13
2022-12-23T04:11:36.665Z,13.77
2022-12-23T04:14:03.712Z,15.80
2022-12-23T04:16:30.732Z,17.08
2022-12-23T04:18:57.702Z,16.08
2022-12-23T04:21:24.597Z,15.65
2022-12-23T04:23:51.499Z,14.13
2022-12-23T04:26:18.332Z,16.10
2022-12-23T04:28:45.179Z,15.18
2022-12-23T04:31:12.119Z,13.45
2022-12-23T04:33:39.074Z,21.17
2022-12-23T04:36:06.251Z,14.02
2022-12-23T04:38:33.192Z,15.18
2022-12-23T04:40:59.978Z,18.02
2022-12-23T04:43:26.777Z,16.48
2022-12-23T04:45:53.706Z,16.50
2022-12-23T04:48:20.722Z,14.82
2022-12-23T04:50:47.623Z,15.57
2022-12-23T04:53:14.578Z,16.27
2022-12-23T04:55:41.349Z,18.75
2022-12-23T04:58:08.185Z,15.00
2022-12-23T05:00:39.509Z,12.57
2022-12-23T05:03:06.929Z,12.50
2022-12-23T05:05:33.903Z,11.90
2022-12-23T05:08:06.858Z,15.13
2022-12-23T05:10:33.692Z,11.48
2022-12-23T05:13:00.497Z,11.50
2022-12-23T05:15:27.272Z,13.85
2022-12-23T05:17:54.110Z,11.05
2022-12-23T05:20:20.958Z,13.90
2022-12-23T05:22:47.815Z,10.48
2022-12-23T05:25:14.763Z,13.55
2022-12-23T05:27:41.603Z,12.20
2022-12-23T05:30:09.301Z,11.35
2022-12-23T05:32:36.600Z,13.30
2022-12-23T05:35:03.625Z,16.20
2022-12-23T05:37:30.480Z,11.85
2022-12-23T05:39:57.407Z,15.02
2022-12-23T05:42:24.501Z,17.05
2022-12-23T05:44:51.315Z,13.18
2022-12-23T05:47:18.141Z,11.70
2022-12-23T05:49:45.001Z,13.60
2022-12-23T05:52:11.790Z,14.27
2022-12-23T05:54:38.657Z,14.57
2022-12-23T05:57:05.438Z,14.85
2022-12-23T05:59:32.303Z,16.38
2022-12-23T06:01:59.563Z,14.35
2022-12-23T06:04:26.727Z,15.48
2022-12-23T06:06:53.710Z,16.98
2022-12-23T06:09:20.638Z,17.15
2022-12-23T06:11:47.835Z,15.85
2022-12-23T06:14:14.754Z,14.45
2022-12-23T06:16:41.711Z,16.88
2022-12-23T06:19:08.764Z,18.45
2022-12-23T06:21:35.581Z,15.40
2022-12-23T06:24:02.864Z,18.73
2022-12-23T06:26:29.852Z,17.63
2022-12-23T06:28:56.689Z,19.45
2022-12-23T06:31:23.786Z,20.42
2022-12-23T06:33:50.664Z,16.90
2022-12-23T06:36:17.553Z,19.40
2022-12-23T06:38:44.424Z,19.65
2022-12-23T06:41:11.576Z,18.08
2022-12-23T06:43:38.452Z,17.15
2022-12-23T06:46:05.598Z,18.40
2022-12-23T06:48:32.629Z,22.25
2022-12-23T06:50:59.658Z,19.13
2022-12-23T06:53:26.500Z,16.92
2022-12-23T06:56:01.232Z,16.42
2022-12-23T06:58:28.164Z,17.35
2022-12-23T07:00:55.413Z,15.95
2022-12-23T07:03:22.444Z,19.00
2022-12-23T07:05:50.439Z,18.75
2022-12-23T07:08:18.673Z,16.17
2022-12-23T07:10:45.821Z,20.70
2022-12-23T07:13:12.820Z,18.13
2022-12-23T07:15:40.236Z,14.48
2022-12-23T07:18:07.794Z,22.48
2022-12-23T07:20:34.649Z,14.23
2022-12-23T07:23:01.677Z,19.50
2022-12-23T07:25:28.579Z,17.15
2022-12-23T07:27:56.048Z,18.70
2022-12-23T07:30:24.038Z,20.42
2022-12-23T07:32:51.379Z,18.30
2022-12-23T07:35:18.716Z,18.08
2022-12-23T07:37:45.993Z,18.10
2022-12-23T07:40:13.107Z,16.80
2022-12-23T07:42:45.728Z,22.83
2022-12-23T07:45:13.280Z,20.65
2022-12-23T07:47:40.215Z,22.17
2022-12-23T07:50:07.817Z,21.20
2022-12-23T07:52:34.764Z,22.58
2022-12-23T07:55:01.680Z,26.67
2022-12-23T07:57:29.453Z,18.38
2022-12-23T07:59:56.327Z,22.75
2022-12-23T08:02:25.519Z,21.50
2022-12-23T08:04:52.665Z,20.50
2022-12-23T08:07:19.545Z,24.00
2022-12-23T08:09:46.375Z,20.92
2022-12-23T08:12:13.273Z,23.45
2022-12-23T08:14:40.293Z,23.45
2022-12-23T08:17:07.197Z,21.50
2022-12-23T08:19:34.081Z,24.35
2022-12-23T08:22:00.966Z,21.65
2022-12-23T08:24:27.866Z,22.45
2022-12-23T08:26:54.858Z,23.40
2022-12-23T08:29:21.764Z,21.20
2022-12-23T08:31:50.327Z,20.98
2022-12-23T08:34:17.444Z,24.35
2022-12-23T08:36:44.203Z,21.67
2022-12-23T08:39:11.570Z,22.35
2022-12-23T08:41:44.955Z,17.20
2022-12-23T08:44:12.304Z,28.83
2022-12-23T08:46:39.858Z,22.40
2022-12-23T08:49:06.982Z,20.15
2022-12-23T08:51:34.731Z,23.20
2022-12-23T08:54:01.767Z,32.13
2022-12-23T08:56:34.964Z,23.65
2022-12-23T08:59:02.425Z,18.83
2022-12-23T09:01:30.945Z,22.85
2022-12-23T09:03:58.178Z,22.00
2022-12-23T09:06:30.073Z,23.77
2022-12-23T09:08:57.841Z,19.83
2022-12-23T09:11:27.331Z,22.83
2022-12-23T09:13:55.078Z,22.23
2022-12-23T09:16:22.695Z,22.20
2022-12-23T09:18:49.676Z,23.88
2022-12-23T09:21:20.217Z,22.17
2022-12-23T09:23:47.496Z,23.33
2022-12-23T09:26:22.880Z,19.63
2022-12-23T09:28:49.711Z,19.70
2022-12-23T09:31:16.855Z,23.67
2022-12-23T09:33:48.171Z,20.23
2022-12-23T09:36:15.006Z,18.65
2022-12-23T09:38:41.964Z,22.73
2022-12-23T09:41:42.839Z,19.35
2022-12-23T09:44:31.382Z,20.70
2022-12-23T09:47:08.016Z,21.70
2022-12-23T09:49:37.019Z,18.27
2022-12-23T09:52:09.214Z,20.42
2022-12-23T09:54:46.017Z,22.40
2022-12-23T09:57:33.151Z,24.40
2022-12-23T10:00:22.661Z,21.48
2022-12-23T10:03:11.831Z,18.88
2022-12-23T10:05:56.272Z,17.98
2022-12-23T10:08:36.365Z,17.92
2022-12-23T10:11:29.338Z,21.45
2022-12-23T10:13:58.108Z,19.80
2022-12-23T10:16:30.683Z,22.50
2022-12-23T10:19:08.630Z,20.20
2022-12-23T10:21:42.201Z,21.75
2022-12-23T10:24:46.203Z,20.50
2022-12-23T10:27:16.117Z,19.63
2022-12-23T10:29:42.970Z,22.92
2022-12-23T10:32:27.769Z,26.45
2022-12-23T10:35:22.223Z,26.02
2022-12-23T10:37:55.258Z,22.75
2022-12-23T10:40:22.228Z,19.80
2022-12-23T10:42:58.029Z,23.35
2022-12-23T10:45:54.782Z,25.10
2022-12-23T10:48:49.383Z,21.08
2022-12-23T10:51:19.462Z,22.10
2022-12-23T10:54:06.081Z,20.15
2022-12-23T10:56:33.284Z,26.92
2022-12-23T10:59:01.184Z,24.52
2022-12-23T11:01:30.597Z,24.40
2022-12-23T11:04:07.430Z,30.05
2022-12-23T11:06:39.495Z,24.00
2022-12-23T11:09:12.184Z,23.83
2022-12-23T11:11:56.555Z,24.65
2022-12-23T11:14:45.156Z,23.30
2022-12-23T11:17:27.956Z,29.00
2022-12-23T11:20:13.211Z,22.10
2022-12-23T11:22:51.350Z,23.80
2022-12-23T11:25:38.447Z,23.63
2022-12-23T11:28:10.139Z,25.05
2022-12-23T11:30:55.902Z,27.67
2022-12-23T11:33:28.608Z,18.23
2022-12-23T11:36:08.294Z,19.63
2022-12-23T11:38:38.109Z,24.67
2022-12-23T11:41:05.872Z,20.38
2022-12-23T11:43:34.000Z,23.55
2022-12-23T11:46:25.977Z,23.70
2022-12-23T11:49:18.356Z,30.13
2022-12-23T11:51:48.918Z,22.80
2022-12-23T11:54:20.582Z,23.25
2022-12-23T11:56:52.503Z,23.92
2022-12-23T11:59:27.998Z,26.00
2022-12-23T12:01:58.331Z,28.98
2022-12-23T12:04:26.543Z,26.92
2022-12-23T12:06:56.591Z,24.45
2022-12-23T12:09:24.556Z,28.45
2022-12-23T12:12:12.201Z,23.00
2022-12-23T12:14:44.724Z,26.73
2022-12-23T12:17:30.147Z,28.30
2022-12-23T12:20:02.966Z,25.88
2022-12-23T12:22:50.259Z,22.48
2022-12-23T12:25:22.551Z,29.83
2022-12-23T12:28:03.173Z,27.17
2022-12-23T12:30:38.399Z,22.45
2022-12-23T12:33:39.471Z,19.52
2022-12-23T12:36:28.784Z,26.25
2022-12-23T12:38:59.039Z,27.17
2022-12-23T12:42:12.009Z,25.80
2022-12-23T12:45:04.018Z,24.98
2022-12-23T12:48:14.584Z,23.33
2022-12-23T12:51:04.342Z,26.67
2022-12-23T12:53:33.486Z,28.35
2022-12-23T12:56:26.301Z,26.00
2022-12-23T12:58:53.194Z,27.35
2022-12-23T13:01:25.555Z,26.02
2022-12-23T13:04:13.792Z,23.98
2022-12-23T13:07:04.666Z,24.67
2022-12-23T13:09:37.130Z,22.73
2022-12-23T13:12:31.241Z,24.17
2022-12-23T13:15:16.436Z,30.15
2022-12-23T13:18:07.056Z,23.52
2022-12-23T13:20:48.596Z,24.15
2022-12-23T13:23:43.059Z,26.67
2022-12-23T13:26:24.766Z,24.88
2022-12-23T13:29:18.604Z,25.75
2022-12-23T13:31:45.350Z,19.50
2022-12-23T13:34:18.164Z,26.85
2022-12-23T13:36:53.575Z,23.63
2022-12-23T13:39:38.737Z,25.98
2022-12-23T13:42:11.948Z,24.83
2022-12-23T13:44:39.235Z,26.23
2022-12-23T13:47:28.590Z,26.73
2022-12-23T13:50:05.989Z,23.33
2022-12-23T13:52:51.544Z,26.95
2022-12-23T13:55:57.751Z,24.80
2022-12-23T13:58:31.234Z,29.77
2022-12-23T14:01:08.214Z,24.02
2022-12-23T14:03:36.632Z,25.83
2022-12-23T14:06:26.158Z,22.75
2022-12-23T14:08:54.469Z,22.58
2022-12-23T14:11:26.354Z,23.38
2022-12-23T14:14:02.813Z,24.42
2022-12-23T14:16:50.833Z,18.08
2022-12-23T14:19:38.809Z,22.05
2022-12-23T14:22:17.722Z,23.15
2022-12-23T14:25:19.069Z,24.52
2022-12-23T14:27:48.669Z,27.17
2022-12-23T14:30:16.767Z,18.55
2022-12-23T14:32:50.591Z,22.52
2022-12-23T14:35:34.267Z,18.88
2022-12-23T14:38:08.315Z,23.08
2022-12-23T14:40:38.119Z,21.17
2022-12-23T14:43:33.157Z,27.27
2022-12-23T14:46:02.385Z,26.45
2022-12-23T14:48:44.499Z,19.80
2022-12-23T14:51:14.268Z,20.88
2022-12-23T14:53:53.865Z,19.33
2022-12-23T14:56:44.008Z,24.13
2022-12-23T14:59:16.584Z,18.05
2022-12-23T15:01:57.880Z,22.10
2022-12-23T15:04:37.036Z,21.58
2022-12-23T15:07:07.490Z,17.20
2022-12-23T15:09:46.436Z,17.60
2022-12-23T15:12:18.897Z,24.40
2022-12-23T15:14:56.350Z,22.70
2022-12-23T15:17:28.993Z,17.55
2022-12-23T15:20:11.221Z,20.83
2022-12-23T15:22:44.841Z,18.30
2022-12-23T15:25:28.979Z,19.60
2022-12-23T15:28:01.566Z,19.85
2022-12-23T15:30:35.337Z,17.63
2022-12-23T15:33:15.988Z,26.92
2022-12-23T15:35:52.519Z,21.95
2022-12-23T15:38:20.460Z,18.02
2022-12-23T15:41:02.937Z,17.67
2022-12-23T15:43:30.364Z,18.05
2022-12-23T15:46:08.401Z,14.10
2022-12-23T15:48:35.724Z,16.92
2022-12-23T15:54:33.116Z,20.23
2022-12-23T15:57:01.659Z,22.33
2022-12-23T15:59:33.097Z,14.38
2022-12-23T16:02:40.854Z,16.33
2022-12-23T16:05:05.320Z,14.70
2022-12-23T16:07:37.817Z,16.65
2022-12-23T16:10:13.772Z,17.70
2022-12-23T16:12:41.296Z,12.52
2022-12-23T16:15:40.393Z,15.48
2022-12-23T16:18:25.672Z,16.98
2022-12-23T16:21:04.901Z,19.70
2022-12-23T16:23:34.916Z,15.90
2022-12-23T16:26:02.670Z,19.92
2022-12-23T16:28:46.985Z,16.33
2022-12-23T16:31:18.177Z,19.75
2022-12-23T16:33:47.750Z,17.58
2022-12-23T16:36:17.331Z,18.23
2022-12-23T16:38:44.604Z,17.30
2022-12-23T16:41:11.663Z,19.38
2022-12-23T16:43:38.531Z,17.40
2022-12-23T16:46:06.549Z,19.48
2022-12-23T16:48:37.331Z,17.25
2022-12-23T16:51:11.362Z,15.50
2022-12-23T16:53:38.540Z,18.55
2022-12-23T16:56:33.910Z,21.15
2022-12-23T16:59:00.940Z,17.20
2022-12-23T17:01:47.805Z,18.55
2022-12-23T17:04:15.623Z,16.60
2022-12-23T17:06:42.733Z,17.17
2022-12-23T17:09:11.383Z,18.30
2022-12-23T17:11:50.383Z,19.95
2022-12-23T17:14:20.069Z,17.98
2022-12-23T17:16:48.164Z,17.92
2022-12-23T17:19:16.294Z,19.90
2022-12-23T17:21:46.631Z,18.67
2022-12-23T17:24:23.656Z,17.52
2022-12-23T17:26:51.274Z,14.88
2022-12-23T17:29:18.176Z,15.60
2022-12-23T17:31:45.667Z,18.10
2022-12-23T17:34:24.252Z,13.65
2022-12-23T17:36:51.583Z,14.95
2022-12-23T17:39:20.807Z,18.13
2022-12-23T17:41:48.543Z,15.93
2022-12-23T17:44:16.809Z,13.50
2022-12-23T17:46:44.861Z,12.25
2022-12-23T17:49:11.770Z,13.65
2022-12-23T17:51:40.109Z,15.13
2022-12-23T17:54:07.042Z,15.07
2022-12-23T17:56:33.818Z,15.45
2022-12-23T17:59:00.700Z,17.52
2022-12-23T18:01:32.164Z,16.80
2022-12-23T18:04:00.026Z,13.83
2022-12-23T18:06:28.499Z,19.00
2022-12-23T18:08:57.406Z,16.80
2022-12-23T18:11:33.844Z,14.65
2022-12-23T18:14:01.523Z,13.73
2022-12-23T18:16:28.540Z,12.68
2022-12-23T18:18:55.389Z,16.10
2022-12-23T18:21:26.902Z,12.18
2022-12-23T18:23:56.717Z,13.40
2022-12-23T18:26:24.105Z,12.50
2022-12-23T18:28:52.731Z,16.60
2022-12-23T18:31:24.677Z,12.80
2022-12-23T18:33:51.740Z,14.65
2022-12-23T18:36:30.561Z,17.48
2022-12-23T18:38:57.888Z,16.33
2022-12-23T18:41:26.070Z,15.55
2022-12-23T18:43:53.942Z,19.13
2022-12-23T18:46:21.562Z,15.48
2022-12-23T18:48:48.568Z,16.73
2022-12-23T18:51:17.173Z,18.00
2022-12-23T18:53:44.259Z,19.90
2022-12-23T18:56:15.456Z,16.60
2022-12-23T18:58:42.872Z,14.88
2022-12-23T19:01:13.539Z,16.55
2022-12-23T19:03:41.098Z,18.42
2022-12-23T19:06:09.296Z,21.27
2022-12-23T19:08:37.299Z,22.80
2022-12-23T19:11:11.933Z,19.13
2022-12-23T19:13:38.820Z,21.55
2022-12-23T19:16:05.690Z,24.23
2022-12-23T19:18:32.477Z,23.42
2022-12-23T19:21:04.140Z,23.00
2022-12-23T19:23:30.962Z,28.88
2022-12-23T19:25:57.751Z,23.65
2022-12-23T19:28:24.903Z,20.77
2022-12-23T19:30:51.959Z,24.65
2022-12-23T19:33:18.872Z,23.15
2022-12-23T19:35:45.645Z,25.70
2022-12-23T19:38:12.702Z,21.38
2022-12-23T19:40:40.515Z,19.73
2022-12-23T19:43:08.070Z,17.98
2022-12-23T19:45:35.118Z,18.73
2022-12-23T19:48:01.915Z,21.75
2022-12-23T19:50:28.814Z,20.60
2022-12-23T19:52:56.539Z,22.92
2022-12-23T19:55:23.967Z,19.63
2022-12-23T19:57:51.796Z,21.48
2022-12-23T20:00:18.733Z,30.45
2022-12-23T20:02:45.568Z,29.17
2022-12-23T20:05:12.485Z,25.05
2022-12-23T20:07:39.407Z,23.27
2022-12-23T20:10:06.985Z,26.25
2022-12-23T20:12:33.775Z,28.15
2022-12-23T20:15:00.550Z,27.25
2022-12-23T20:17:27.434Z,27.17
2022-12-23T20:19:54.304Z,23.38
2022-12-23T20:22:21.052Z,27.65
2022-12-23T20:24:47.976Z,31.10
2022-12-23T20:27:16.132Z,25.40
2022-12-23T20:29:43.424Z,27.30
2022-12-23T20:32:10.644Z,29.92
2022-12-23T20:34:40.019Z,28.02
2022-12-23T20:37:07.456Z,26.02
2022-12-23T20:39:34.670Z,30.38
2022-12-23T20:42:01.472Z,30.90
2022-12-23T20:44:37.016Z,28.60
2022-12-23T20:47:05.662Z,30.50
2022-12-23T20:49:32.739Z,34.70
2022-12-23T20:51:59.476Z,30.90
2022-12-23T20:54:32.186Z,31.27
2022-12-23T20:56:59.837Z,30.00
2022-12-23T20:59:26.711Z,32.42
2022-12-23T21:01:53.647Z,30.10
2022-12-23T21:04:20.753Z,34.35
2022-12-23T21:06:47.585Z,28.80
2022-12-23T21:09:15.633Z,30.20
2022-12-23T21:11:44.885Z,31.50
2022-12-23T21:14:11.997Z,28.80
2022-12-23T21:16:39.650Z,30.92
2022-12-23T21:19:09.109Z,30.15
2022-12-23T21:21:36.399Z,26.55
2022-12-23T21:24:04.733Z,28.55
2022-12-23T21:26:33.400Z,30.58
2022-12-23T21:29:02.317Z,24.33
2022-12-23T21:31:31.180Z,24.50
2022-12-23T21:33:58.475Z,24.85
2022-12-23T21:36:28.008Z,30.52
2022-12-23T21:38:55.523Z,22.00
2022-12-23T21:41:28.431Z,31.27
2022-12-23T21:43:57.333Z,27.15
2022-12-23T21:46:25.200Z,29.20
2022-12-23T21:48:52.184Z,27.38
2022-12-23T21:51:31.916Z,24.83
2022-12-23T21:54:05.607Z,27.40
2022-12-23T21:56:32.622Z,24.38
2022-12-23T21:59:02.134Z,28.88
2022-12-23T22:01:29.634Z,26.00
2022-12-23T22:03:57.144Z,27.13
2022-12-23T22:06:28.187Z,22.15
2022-12-23T22:08:55.495Z,25.33
2022-12-23T22:11:28.234Z,22.45
2022-12-23T22:13:56.956Z,28.42
2022-12-23T22:16:25.746Z,26.83
2022-12-23T22:18:53.432Z,33.53
2022-12-23T22:21:22.561Z,32.95
2022-12-23T22:23:50.732Z,32.22
2022-12-23T22:26:24.820Z,29.20
2022-12-23T22:28:56.369Z,31.08
2022-12-23T22:31:33.578Z,35.33
2022-12-23T22:34:00.543Z,28.98
2022-12-23T22:36:27.475Z,32.72
2022-12-23T22:38:57.248Z,28.17
2022-12-23T22:41:25.428Z,24.40
2022-12-23T22:43:52.217Z,33.40
2022-12-23T22:46:19.527Z,28.15
2022-12-23T22:48:46.723Z,28.00
2022-12-23T22:51:19.433Z,26.98
2022-12-23T22:53:46.970Z,28.77
2022-12-23T22:56:16.120Z,33.20
2022-12-23T22:58:43.051Z,24.40
2022-12-23T23:01:29.662Z,23.95
2022-12-23T23:03:57.995Z,25.30
2022-12-23T23:06:37.916Z,37.25
2022-12-23T23:09:09.741Z,36.17
2022-12-23T23:11:36.571Z,34.97
2022-12-23T23:14:04.011Z,35.38
2022-12-23T23:16:30.895Z,27.05
2022-12-23T23:18:59.031Z,26.77
2022-12-23T23:21:26.719Z,26.15
2022-12-23T23:23:53.571Z,29.98
2022-12-23T23:26:21.393Z,22.77
2022-12-23T23:28:48.486Z,25.10
2022-12-23T23:34:02.345Z,24.08
2022-12-23T23:36:29.222Z,18.80
2022-12-23T23:38:56.013Z,21.63
2022-12-23T23:41:24.011Z,15.90
2022-12-23T23:43:51.965Z,20.17
2022-12-23T23:46:19.572Z,18.85
2022-12-23T23:48:46.412Z,19.15
2022-12-23T23:51:13.211Z,22.90
2022-12-23T23:53:40.489Z,17.13
2022-12-23T23:56:08.449Z,17.65
2022-12-23T23:58:36.534Z,18.15
